Flight Track Log - Related Links

Times and Time Zones

All times are in EDT time to prevent confusion due to time zone crossing. See the AFR1890 flight status page for this flight to view local times or setup timezone preferences in your user account.

Time Position Orientation Groundspeed Altitude Reporting Facility
EDT Latitude Longitude Course Direction KTS MPH feet Rate Location/Type
Sat 07:20:15 AM 48.6357 4.7722 105° East  Level Estimated
Sat 07:21:15 AM 48.6095 4.9167 105° East  Level Estimated
Sat 07:22:15 AM 48.5831 5.0611 106° East  Level Estimated
Sat 07:23:15 AM 48.5565 5.2053 106° East  Level Estimated
Sat 07:24:15 AM 48.5298 5.3494 106° East  Level Estimated
Sat 07:25:15 AM 48.5029 5.4933 106° East  Level Estimated
Sat 07:26:15 AM 48.4758 5.6371 106° East  Level Estimated
Sat 07:27:15 AM 48.4485 5.7807 106° East  Level Estimated
Sat 07:28:15 AM 48.4210 5.9242 106° East  Level Estimated
Sat 07:29:15 AM 48.3934 6.0675 106° East  Level Estimated
Sat 07:30:15 AM 48.3655 6.2106 106° East  Level Estimated
Sat 07:31:15 AM 48.3375 6.3536 106° East  Level Estimated
Sat 07:32:15 AM 48.3094 6.4965 107° East  Level Estimated
Sat 07:33:15 AM 48.2810 6.6392 107° East  Level Estimated
Sat 07:34:15 AM 48.2525 6.7817 107° East  Level Estimated
Sat 07:35:15 AM 48.2235 6.9255 107° East  Level Estimated
Sat 07:36:15 AM 48.1943 7.0691 107° East  Level Estimated
Sat 07:37:15 AM 48.1650 7.2125 107° East  Level Estimated
Sat 07:38:15 AM 48.1354 7.3558 107° East  Level Estimated
Sat 07:39:15 AM 48.1057 7.4989 107° East  Level Estimated
Sat 07:40:15 AM 48.0759 7.6419 107° East  Level Estimated
Sat 07:41:15 AM 48.0458 7.7847 108° East  Level Estimated
Sat 07:42:15 AM 48.0156 7.9273 108° East  Level Estimated
Sat 07:43:15 AM 47.9851 8.0697 108° East  Level Estimated
Sat 07:44:15 AM 47.9546 8.2120 108° East  Level Estimated
Sat 07:45:15 AM 47.9238 8.3541 108° East  Level Estimated
Sat 07:46:15 AM 47.8928 8.4961 108° East  Level Estimated
Sat 07:47:15 AM 47.8617 8.6379 108° East  Level Estimated
Sat 07:48:15 AM 47.8304 8.7795 108° East  Level Estimated
Sat 07:49:15 AM 47.7990 8.9209 108° East  Level Estimated
Sat 07:50:15 AM 47.7673 9.0622 108° East  Level Estimated
Sat 07:51:15 AM 47.7355 9.2032 109° East  Level Estimated
Sat 07:52:15 AM 47.7035 9.3442 109° East  Level Estimated
Sat 07:53:15 AM 47.6714 9.4849 109° East  Level Estimated
Sat 07:54:15 AM 47.6391 9.6255 109° East  Level Estimated
Sat 07:55:15 AM 47.6066 9.7659 109° East  Level Estimated
Sat 07:56:15 AM 47.5739 9.9061 109° East  Level Estimated
Sat 07:57:15 AM 47.5410 10.0462 109° East  Level Estimated
Sat 07:58:15 AM 47.5080 10.1860 109° East  Level Estimated
Sat 07:59:15 AM 47.4749 10.3257 109° East  Level Estimated
Sat 08:00:15 AM 47.4415 10.4652 110° East  Level Estimated
Sat 08:01:15 AM 47.4080 10.6046 110° East  Level Estimated
Sat 08:02:15 AM 47.3743 10.7437 110° East  Level Estimated
Sat 08:03:15 AM 47.3404 10.8827 110° East  Level Estimated
Sat 08:04:15 AM 47.3064 11.0215 110° East  Level Estimated
Sat 08:05:15 AM 47.2722 11.1601 110° East  Level Estimated
Sat 08:06:15 AM 47.2379 11.2986 110° East  Level Estimated
Sat 08:07:15 AM 47.2034 11.4369 110° East  Level Estimated
Sat 08:08:15 AM 47.1687 11.5750 110° East  Level Estimated
Sat 08:09:15 AM 47.1338 11.7129 110° East  Level Estimated
Sat 08:10:15 AM 47.0988 11.8506 111° Southeast  Level Estimated
Sat 08:11:15 AM 47.0636 11.9881 111° Southeast  Level Estimated
Sat 08:12:15 AM 47.0283 12.1255 111° Southeast  Level Estimated
Sat 08:13:15 AM 46.9927 12.2627 111° Southeast  Level Estimated
Sat 08:14:15 AM 46.9571 12.3997 111° Southeast  Level Estimated
Sat 08:15:15 AM 46.9212 12.5365 111° Southeast  Level Estimated
Sat 08:16:15 AM 46.8852 12.6731 111° Southeast  Level Estimated
Sat 08:17:15 AM 46.8490 12.8096 111° Southeast  Level Estimated
Sat 08:18:15 AM 46.8127 12.9458 111° Southeast  Level Estimated
Sat 08:19:15 AM 46.7762 13.0819 111° Southeast  Level Estimated
Sat 08:20:15 AM 46.7396 13.2178 112° Southeast  Level Estimated
Sat 08:21:15 AM 46.7028 13.3535 112° Southeast  Level Estimated
Sat 08:22:15 AM 46.6658 13.4890 112° Southeast  Level Estimated
Sat 08:23:15 AM 46.6287 13.6244 112° Southeast  Level Estimated
Sat 08:24:15 AM 46.5914 13.7595 112° Southeast  Level Estimated
Sat 08:25:15 AM 46.5539 13.8945 112° Southeast  Level Estimated
Sat 08:26:15 AM 46.5163 14.0293 112° Southeast  Level Estimated
Sat 08:27:15 AM 46.4785 14.1638 112° Southeast  Level Estimated
Sat 08:28:15 AM 46.4406 14.2983 112° Southeast  Level Estimated
Sat 08:29:15 AM 46.4025 14.4325 112° Southeast  Level Estimated
Sat 08:30:15 AM 46.3643 14.5665 113° Southeast  Level Estimated
Sat 08:31:15 AM 46.3259 14.7003 113° Southeast  Level Estimated
Sat 08:32:15 AM 46.2874 14.8340 113° Southeast  Level Estimated
Sat 08:33:15 AM 46.2487 14.9675 113° Southeast  Level Estimated
Sat 08:34:15 AM 46.2098 15.1007 113° Southeast  Level Estimated
Sat 08:35:15 AM 46.1708 15.2338 113° Southeast  Level Estimated
Sat 08:36:15 AM 46.1316 15.3667 113° Southeast  Level Estimated
Sat 08:37:15 AM 46.0923 15.4994 113° Southeast  Level Estimated
Sat 08:38:15 AM 46.0528 15.6320 113° Southeast  Level Estimated
Sat 08:39:15 AM 46.0132 15.7643 113° Southeast  Level Estimated
Sat 08:40:15 AM 45.9734 15.8964 113° Southeast  Level Estimated
Sat 08:41:15 AM 45.9335 16.0284 114° Southeast  Level Estimated
Sat 08:42:15 AM 45.8934 16.1601 114° Southeast  Level Estimated
Sat 08:43:15 AM 45.8531 16.2917 114° Southeast  Level Estimated
Sat 08:44:15 AM 45.8128 16.4231 114° Southeast  Level Estimated
Sat 08:45:15 AM 45.7722 16.5543 114° Southeast  Level Estimated
Sat 08:46:15 AM 45.7315 16.6853 114° Southeast  Level Estimated
Sat 08:47:15 AM 45.6907 16.8161 114° Southeast  Level Estimated
Sat 08:48:15 AM 45.6497 16.9467 114° Southeast  Level Estimated
Sat 08:49:15 AM 45.6086 17.0771 114° Southeast  Level Estimated
Sat 08:50:15 AM 45.5673 17.2074 114° Southeast  Level Estimated
Sat 08:51:15 AM 45.5258 17.3374 115° Southeast  Level Estimated
Sat 08:52:15 AM 45.4843 17.4673 115° Southeast  Level Estimated
Sat 08:53:15 AM 45.4425 17.5969 115° Southeast  Level Estimated
Sat 08:54:15 AM 45.4007 17.7264 115° Southeast  Level Estimated
Sat 08:55:15 AM 45.3587 17.8556 115° Southeast  Level Estimated
Sat 08:56:15 AM 45.3165 17.9847 115° Southeast  Level Estimated
Sat 08:57:15 AM 45.2742 18.1136 115° Southeast  Level Estimated
Sat 08:58:15 AM 45.2317 18.2423 115° Southeast  Level Estimated
Sat 08:59:15 AM 45.1891 18.3708 115° Southeast  Level Estimated
Sat 09:00:15 AM 45.1464 18.4991 115° Southeast  Level Estimated
Sat 09:01:15 AM 45.1035 18.6273 115° Southeast  Level Estimated
Sat 09:02:15 AM 45.0605 18.7552 116° Southeast  Level Estimated
Sat 09:03:15 AM 45.0173 18.8829 116° Southeast  Level Estimated
Sat 09:04:15 AM 44.9740 19.0105 116° Southeast  Level Estimated
Sat 09:05:15 AM 44.9305 19.1378 116° Southeast  Level Estimated
Sat 09:06:15 AM 44.8869 19.2650 116° Southeast  Level Estimated
Sat 09:07:15 AM 44.8432 19.3919 116° Southeast  Level Estimated
Sat 09:08:15 AM 44.7993 19.5187 116° Southeast  Level Estimated
Sat 09:09:15 AM 44.7553 19.6453 116° Southeast  Level Estimated
Sat 09:10:15 AM 44.7111 19.7717 116° Southeast  Level Estimated
Sat 09:11:15 AM 44.6668 19.8978 116° Southeast  Level Estimated
Sat 09:12:15 AM 44.6224 20.0238 116° Southeast  Level Estimated
Sat 09:13:15 AM 44.5778 20.1496 116° Southeast  Level Estimated
Sat 09:14:15 AM 44.5331 20.2752 117° Southeast  Level Estimated
Sat 09:15:15 AM 44.4883 20.4007 117° Southeast  Level Estimated
Sat 09:16:15 AM 44.4433 20.5259 117° Southeast  Level Estimated
Sat 09:17:15 AM 44.3982 20.6509 117° Southeast  Level Estimated
Sat 09:18:15 AM 44.3529 20.7758 117° Southeast  Level Estimated
Sat 09:19:15 AM 44.3075 20.9004 117° Southeast  Level Estimated
Sat 09:20:15 AM 44.2620 21.0249 117° Southeast  Level Estimated
Sat 09:21:15 AM 44.2163 21.1491 117° Southeast  Level Estimated
Sat 09:22:15 AM 44.1705 21.2732 117° Southeast  Level Estimated
Sat 09:23:15 AM 44.1246 21.3971 117° Southeast  Level Estimated
Sat 09:24:15 AM 44.0785 21.5207 117° Southeast  Level Estimated
Sat 09:25:15 AM 44.0323 21.6442 118° Southeast  Level Estimated
Sat 09:26:15 AM 43.9860 21.7675 118° Southeast  Level Estimated
Sat 09:27:15 AM 43.9395 21.8906 118° Southeast  Level Estimated
Sat 09:28:15 AM 43.8929 22.0135 118° Southeast  Level Estimated
Sat 09:29:15 AM 43.8462 22.1363 118° Southeast  Level Estimated
Sat 09:30:15 AM 43.7993 22.2588 118° Southeast  Level Estimated
Sat 09:31:15 AM 43.7523 22.3811 118° Southeast  Level Estimated
Sat 09:32:15 AM 43.7052 22.5033 118° Southeast  Level Estimated
Sat 09:33:15 AM 43.6580 22.6252 118° Southeast  Level Estimated
Sat 09:34:15 AM 43.6106 22.7470 118° Southeast  Level Estimated
Sat 09:35:15 AM 43.5631 22.8685 118° Southeast  Level Estimated
Sat 09:36:15 AM 43.5154 22.9899 118° Southeast  Level Estimated
Sat 09:37:15 AM 43.4677 23.1111 119° Southeast  Level Estimated
Sat 09:38:15 AM 43.4198 23.2321 119° Southeast  Level Estimated
Sat 09:39:15 AM 43.3718 23.3529 119° Southeast  Level Estimated
Sat 09:40:15 AM 43.3236 23.4735 119° Southeast  Level Estimated
Sat 09:41:15 AM 43.2753 23.5939 119° Southeast  Level Estimated
Sat 09:42:15 AM 43.2270 23.7141 119° Southeast  Level Estimated
Sat 09:43:15 AM 43.1784 23.8342 119° Southeast  Level Estimated
Sat 09:44:15 AM 43.1298 23.9540 119° Southeast  Level Estimated
Sat 09:45:15 AM 43.0810 24.0737 119° Southeast  Level Estimated
Sat 09:46:15 AM 43.0321 24.1931 119° Southeast  Level Estimated
Sat 09:47:15 AM 42.9831 24.3124 119° Southeast  Level Estimated
Sat 09:48:15 AM 42.9339 24.4315 119° Southeast  Level Estimated
Sat 09:49:15 AM 42.8847 24.5504 120° Southeast  Level Estimated
Sat 09:50:15 AM 42.8353 24.6691 120° Southeast  Level Estimated
Sat 09:51:15 AM 42.7857 24.7876 120° Southeast  Level Estimated
Sat 09:52:15 AM 42.7361 24.9059 120° Southeast  Level Estimated
Sat 09:53:15 AM 42.6863 25.0240 120° Southeast  Level Estimated
Sat 09:54:15 AM 42.6365 25.1420 120° Southeast  Level Estimated
Sat 09:55:15 AM 42.5865 25.2597 120° Southeast  Level Estimated
Sat 09:56:15 AM 42.5363 25.3773 120° Southeast  Level Estimated
Sat 09:57:15 AM 42.4861 25.4947 120° Southeast  Level Estimated
Sat 09:58:15 AM 42.4357 25.6119 120° Southeast  Level Estimated
Sat 09:59:15 AM 42.3853 25.7288 120° Southeast  Level Estimated
Sat 10:00:15 AM 42.3347 25.8457 120° Southeast  Level Estimated
Sat 10:01:15 AM 42.2839 25.9623 120° Southeast  Level Estimated
Sat 10:02:15 AM 42.2331 26.0787 121° Southeast  Level Estimated
Sat 10:03:15 AM 42.1822 26.1950 121° Southeast  Level Estimated
Sat 10:04:15 AM 42.1311 26.3110 121° Southeast  Level Estimated
Sat 10:05:15 AM 42.0799 26.4269 121° Southeast  Level Estimated
Sat 10:06:15 AM 42.0286 26.5426 121° Southeast  Level Estimated
Sat 10:07:15 AM 41.9772 26.6581 121° Southeast  Level Estimated
Sat 10:08:15 AM 41.9256 26.7734 121° Southeast  Level Estimated
Sat 10:09:15 AM 41.8740 26.8885 121° Southeast  Level Estimated
Sat 10:10:15 AM 41.8222 27.0035 121° Southeast  Level Estimated
Sat 10:11:15 AM 41.7703 27.1182 121° Southeast  Level Estimated
Sat 10:12:15 AM 41.7183 27.2328 121° Southeast  Level Estimated
Sat 10:13:15 AM 41.6662 27.3472 121° Southeast  Level Estimated
Sat 10:14:15 AM 41.6140 27.4614 121° Southeast  Level Estimated
Sat 10:15:15 AM 41.5617 27.5754 122° Southeast  Level Estimated
Sat 10:16:15 AM 41.5092 27.6892 122° Southeast  Level Estimated
Sat 10:17:15 AM 41.4567 27.8029 122° Southeast  Level Estimated
Sat 10:18:15 AM 41.4040 27.9163 122° Southeast  Level Estimated
Sat 10:19:15 AM 41.3512 28.0296 122° Southeast  Level Estimated
Sat 10:20:15 AM 41.2983 28.1427 122° Southeast  Level Estimated
Sat 10:21:15 AM 41.2453 28.2556 122° Southeast  Level Estimated
Sat 10:22:15 AM 41.1922 28.3683 122° Southeast  Level Estimated
Sat 10:23:15 AM 41.1390 28.4809 122° Southeast  Level Estimated
Sat 10:24:15 AM 41.0857 28.5932 122° Southeast  Level Estimated
Sat 10:25:15 AM 41.0322 28.7054 122° Southeast  Level Estimated
Sat 10:26:15 AM 40.9787 28.8174 122° Southeast  Level Estimated
Sat 10:27:15 AM 40.9272 28.9250 302° West  Level Estimated
Sat 10:28:15 AM 40.9787 28.8174 122° Southeast  Level Estimated
Sat 10:29:15 AM 40.9272 28.9250 302° West  Level Estimated
Sat 10:30:15 AM 40.9787 28.8174 122° Southeast  Level Estimated
Sat 10:31:15 AM 40.9272 28.9250 302° West  Level Estimated
Sat 10:32:15 AM 40.9787 28.8174 122° Southeast  Level Estimated
Sat 10:33:15 AM 40.9272 28.9250 302° West  Level Estimated
Sat 10:34:15 AM 40.9787 28.8174 122° Southeast  Level Estimated
Sat 10:35:15 AM 40.9272 28.9250 302° West  Level Estimated
Sat 10:36:15 AM 40.9787 28.8174 122° Southeast  Level Estimated
Sat 10:37:15 AM 40.9277 28.9240 302° West  Level Estimated
Sat 10:38:15 AM 40.9787 28.8174 122° Southeast  Level Estimated
Sat 10:39:15 AM 40.9277 28.9240 302° West  Level Estimated
Sat 10:40:15 AM 40.9787 28.8174 122° Southeast  Level Estimated
Sat 10:41:15 AM 40.9277 28.9240 302° West  Level Estimated
Sat 10:42:15 AM 40.9787 28.8174 122° Southeast  Level Estimated
Sat 10:43:15 AM 40.9277 28.9240 302° West  Level Estimated
Sat 10:44:15 AM 40.9787 28.8174 122° Southeast  Level Estimated
Sat 10:45:15 AM 40.9277 28.9240 302° West  Level Estimated
Sat 10:46:15 AM 40.9787 28.8174 302° West  Level Estimated

Login

Don't have an account? Register now (free) for customized features, flight alerts, and more!